Time;durP1;ratioP1;P1;durP2;ratioP2;P2;SDS_P1;SDS_P2;PMS_P1;PMS_P2;Temp;Humidity;BMP_temperature;BMP_pressure;BME280_temperature;BME280_humidity;BME280_pressure;Samples;Min_cycle;Max_cycle;Signal;HPM_P1;HPM_P2
2020/12/06 00:00:26;;;;;;;150.40;140.80;;;1.50;99.90;;;;;;5093671;28;20868;-89
2020/12/06 00:02:57;;;;;;;158.53;148.50;;;1.70;99.90;;;;;;5111669;28;20481;-88
2020/12/06 00:05:35;;;;;;;151.50;141.97;;;1.50;99.90;;;;;;5113730;28;20448;-88
2020/12/06 00:08:07;;;;;;;161.30;151.07;;;1.60;99.90;;;;;;5093548;28;20454;-88
2020/12/06 00:10:35;;;;;;;152.13;142.03;;;2.00;99.90;;;;;;5093820;28;20453;-89
2020/12/06 00:13:03;;;;;;;146.63;137.37;;;1.60;99.90;;;;;;5093144;28;20462;-86
2020/12/06 00:15:37;;;;;;;142.43;133.40;;;1.60;99.90;;;;;;5093199;28;21010;-88
2020/12/06 00:18:05;;;;;;;146.87;137.17;;;1.20;99.90;;;;;;5092392;28;20947;-89
2020/12/06 00:20:39;;;;;;;137.07;128.00;;;1.50;99.90;;;;;;5104886;28;20475;-89
2020/12/06 00:23:11;;;;;;;138.33;128.87;;;1.50;99.90;;;;;;5113639;28;20453;-88
2020/12/06 00:25:43;;;;;;;130.10;121.73;;;1.30;99.90;;;;;;5101467;28;20952;-89
2020/12/06 00:28:11;;;;;;;115.27;107.47;;;1.20;99.90;;;;;;5092877;28;20453;-89
2020/12/06 00:30:43;;;;;;;119.33;110.97;;;1.10;99.90;;;;;;5093472;28;20473;-88
2020/12/06 00:33:16;;;;;;;127.90;119.40;;;1.10;99.90;;;;;;5092838;28;20819;-89
2020/12/06 00:35:46;;;;;;;132.83;123.33;;;1.10;99.90;;;;;;5104074;28;20488;-89
2020/12/06 00:38:29;;;;;;;137.47;127.77;;;0.90;99.90;;;;;;5113481;28;20456;-88
2020/12/06 00:41:00;;;;;;;144.80;134.70;;;1.00;99.90;;;;;;5112981;28;20963;-89
2020/12/06 00:43:36;;;;;;;141.00;131.03;;;0.90;99.90;;;;;;5103387;28;20477;-89
2020/12/06 00:46:12;;;;;;;135.07;125.27;;;0.90;99.90;;;;;;5092262;28;20485;-89
2020/12/06 00:48:45;;;;;;;130.00;120.93;;;0.70;99.90;;;;;;5103541;28;20531;-89
2020/12/06 00:51:16;;;;;;;133.60;123.87;;;0.80;99.90;;;;;;5113334;28;20454;-89
2020/12/06 00:53:48;;;;;;;141.37;131.10;;;0.60;99.90;;;;;;5102271;28;20820;-89
2020/12/06 00:56:23;;;;;;;141.27;131.27;;;0.90;99.90;;;;;;5096815;28;20877;-89
2020/12/06 00:58:55;;;;;;;143.80;133.30;;;0.60;99.90;;;;;;5098602;28;20457;-89
2020/12/06 01:01:24;;;;;;;149.67;139.07;;;0.50;99.90;;;;;;5096120;28;20445;-89
2020/12/06 01:03:51;;;;;;;145.57;135.00;;;0.70;99.90;;;;;;5096833;28;21035;-88
2020/12/06 01:06:21;;;;;;;166.83;155.47;;;0.70;99.90;;;;;;5096963;28;20457;-88
2020/12/06 01:08:50;;;;;;;156.30;145.17;;;0.60;99.90;;;;;;5096515;28;20827;-89
2020/12/06 01:11:17;;;;;;;159.23;148.07;;;0.70;99.90;;;;;;5104406;28;20449;-89
2020/12/06 01:13:45;;;;;;;173.40;161.50;;;0.60;99.90;;;;;;5117172;28;20191;-89
2020/12/06 01:16:17;;;;;;;165.43;153.90;;;0.70;99.90;;;;;;5115024;28;20480;-89
2020/12/06 01:18:55;;;;;;;160.53;149.73;;;0.60;99.90;;;;;;5117090;28;20531;-89
2020/12/06 01:21:27;;;;;;;154.13;144.07;;;0.60;99.90;;;;;;5110588;28;20562;-88
2020/12/06 01:23:55;;;;;;;157.83;146.63;;;0.60;99.90;;;;;;5096402;28;20445;-88
2020/12/06 01:26:30;;;;;;;159.23;148.50;;;0.60;99.90;;;;;;5101778;28;20456;-88
2020/12/06 01:29:00;;;;;;;155.00;144.70;;;0.60;99.90;;;;;;5116840;28;20455;-88
2020/12/06 01:31:29;;;;;;;164.80;153.73;;;0.50;99.90;;;;;;5115065;28;20509;-85
2020/12/06 01:33:58;;;;;;;162.47;151.27;;;0.70;99.90;;;;;;5116516;28;20484;-88
2020/12/06 01:36:29;;;;;;;167.13;155.27;;;0.60;99.90;;;;;;5116170;28;20476;-88
2020/12/06 01:38:59;;;;;;;172.60;160.20;;;0.50;99.90;;;;;;5116601;28;20963;-88
2020/12/06 01:41:27;;;;;;;168.87;156.33;;;0.50;99.90;;;;;;5112782;28;20510;-89
2020/12/06 01:44:03;;;;;;;164.57;153.37;;;0.60;99.90;;;;;;5096110;28;20449;-86
2020/12/06 01:46:33;;;;;;;165.93;154.27;;;0.50;99.90;;;;;;5095522;28;20547;-88
2020/12/06 01:49:03;;;;;;;168.50;156.20;;;0.40;99.90;;;;;;5097568;28;20456;-87
2020/12/06 01:51:34;;;;;;;167.17;155.23;;;0.60;99.90;;;;;;5100057;28;20536;-89
2020/12/06 01:54:03;;;;;;;159.60;148.73;;;0.50;99.90;;;;;;5116359;28;20471;-89
2020/12/06 01:56:34;;;;;;;158.93;148.07;;;0.40;99.90;;;;;;5113364;28;20483;-87
2020/12/06 01:59:05;;;;;;;149.13;139.03;;;0.50;99.90;;;;;;5096269;28;20523;-89
2020/12/06 02:01:34;;;;;;;158.60;148.13;;;0.20;99.90;;;;;;5115456;28;20452;-86
2020/12/06 02:04:04;;;;;;;152.13;141.50;;;0.30;99.90;;;;;;5115980;28;20883;-86
2020/12/06 02:06:31;;;;;;;149.13;138.10;;;0.20;99.90;;;;;;5095192;28;20480;-88
2020/12/06 02:09:03;;;;;;;152.53;141.53;;;0.10;99.90;;;;;;5095281;28;20454;-88
2020/12/06 02:11:34;;;;;;;155.00;144.27;;;0.10;99.90;;;;;;5095790;28;20533;-88
2020/12/06 02:14:00;;;;;;;160.10;148.20;;;0.20;99.90;;;;;;5095626;28;20458;-88
2020/12/06 02:16:31;;;;;;;154.73;143.25;;;0.10;99.90;;;;;;5094360;28;20579;-88
2020/12/06 02:19:01;;;;;;;160.30;149.07;;;0.20;99.90;;;;;;5095329;28;20191;-88
2020/12/06 02:21:30;;;;;;;160.00;148.00;;;0.30;99.90;;;;;;5095076;28;20936;-88
2020/12/06 02:23:57;;;;;;;163.57;152.20;;;0.30;99.90;;;;;;5095013;28;20450;-88
2020/12/06 02:26:30;;;;;;;178.50;166.63;;;0.30;99.90;;;;;;5095049;28;20483;-89
2020/12/06 02:28:58;;;;;;;172.30;158.67;;;0.40;99.90;;;;;;5095235;28;20450;-87
2020/12/06 02:31:25;;;;;;;173.50;160.23;;;0.30;99.90;;;;;;5094034;28;20849;-88
2020/12/06 02:33:54;;;;;;;176.30;163.43;;;0.50;99.90;;;;;;5094469;28;20928;-88
2020/12/06 02:36:24;;;;;;;168.10;156.30;;;0.50;99.90;;;;;;5095142;28;20478;-89
2020/12/06 02:39:02;;;;;;;173.45;162.02;;;0.50;99.90;;;;;;5095202;28;20903;-86
2020/12/06 02:41:37;;;;;;;164.60;153.20;;;0.50;99.90;;;;;;5094939;28;20244;-88
2020/12/06 02:44:09;;;;;;;158.80;147.97;;;0.50;99.90;;;;;;5094848;28;21030;-87
2020/12/06 02:46:40;;;;;;;159.60;148.00;;;0.40;99.90;;;;;;5093710;28;20454;-88
2020/12/06 02:49:07;;;;;;;162.53;150.90;;;0.30;99.90;;;;;;5095153;28;20449;-89
2020/12/06 02:51:35;;;;;;;162.83;151.60;;;0.40;99.90;;;;;;5094425;28;20456;-88
2020/12/06 02:54:08;;;;;;;159.90;148.73;;;0.30;99.90;;;;;;5094823;28;20534;-89
2020/12/06 02:56:40;;;;;;;162.07;150.27;;;0.20;99.90;;;;;;5094838;28;20474;-89
2020/12/06 02:59:08;;;;;;;157.17;146.47;;;0.20;99.90;;;;;;5094904;28;20446;-90
2020/12/06 03:01:38;;;;;;;156.50;145.43;;;0.20;99.90;;;;;;5094975;28;20453;-88
2020/12/06 03:04:14;;;;;;;155.85;145.23;;;0.10;99.90;;;;;;5096290;28;20503;-89
2020/12/06 03:07:08;;;;;;;;;;;;;;;;;;;;;
2020/12/06 03:09:42;;;;;;;162.70;151.63;;;0.10;99.90;;;;;;5116043;28;20187;-88
2020/12/06 03:12:16;;;;;;;161.93;150.13;;;0.30;99.90;;;;;;5095492;28;20223;-88
2020/12/06 03:14:58;;;;;;;152.93;142.23;;;0.30;99.90;;;;;;5094994;28;20499;-88
2020/12/06 03:17:24;;;;;;;167.63;154.97;;;0.30;99.90;;;;;;5093582;28;20254;-89
2020/12/06 03:22:49;;;;;;;189.80;176.60;;;0.50;99.90;;;;;;5092618;28;20496;-88
2020/12/06 03:25:20;;;;;;;191.73;179.20;;;0.70;99.90;;;;;;5095387;28;20453;-88
2020/12/06 03:28:08;;;;;;;198.43;185.57;;;0.70;99.90;;;;;;5095744;28;20511;-89
2020/12/06 03:30:35;;;;;;;198.07;185.47;;;0.80;99.90;;;;;;5097312;28;20553;-88
2020/12/06 03:35:56;;;;;;;217.17;203.87;;;1.00;99.90;;;;;;5098227;28;20576;-87
2020/12/06 03:41:25;;;;;;;;;;;;;;;;;;;;;
2020/12/06 03:43:51;;;;;;;205.10;192.80;;;1.20;99.90;;;;;;5095682;28;20485;-88
2020/12/06 03:46:20;;;;;;;205.20;192.67;;;1.30;99.90;;;;;;5097659;28;20959;-88
2020/12/06 03:48:51;;;;;;;190.03;177.73;;;1.30;99.90;;;;;;5098219;28;20531;-87
2020/12/06 03:51:18;;;;;;;193.57;181.70;;;1.20;99.90;;;;;;5099212;28;20445;-88
2020/12/06 03:53:48;;;;;;;183.20;170.40;;;1.20;99.90;;;;;;5098937;28;20494;-88
2020/12/06 03:56:16;;;;;;;176.20;165.37;;;1.10;99.90;;;;;;5118469;28;20562;-89
2020/12/06 03:58:48;;;;;;;174.40;163.13;;;1.10;99.90;;;;;;5119047;28;20820;-88
2020/12/06 04:01:17;;;;;;;159.97;148.60;;;1.00;99.90;;;;;;5098925;28;20456;-88
2020/12/06 04:03:45;;;;;;;150.20;141.10;;;0.90;99.90;;;;;;5099033;28;20810;-88
2020/12/06 04:06:13;;;;;;;149.00;138.70;;;0.90;99.90;;;;;;5116913;28;20451;-88
2020/12/06 04:09:19;;;;;;;;;;;;;;;;;;;;;
2020/12/06 04:11:48;;;;;;;149.73;140.17;;;0.90;99.90;;;;;;5049451;28;20477;-90
2020/12/06 04:14:18;;;;;;;146.07;136.43;;;0.70;99.90;;;;;;5109857;28;20927;-88
2020/12/06 04:16:44;;;;;;;148.53;137.90;;;0.90;99.90;;;;;;5113478;28;20488;-85
2020/12/06 04:19:12;;;;;;;144.97;134.73;;;0.80;99.90;;;;;;5113620;28;20943;-84
2020/12/06 04:21:40;;;;;;;144.80;135.00;;;0.90;99.90;;;;;;5114038;28;20588;-84
2020/12/06 04:24:14;;;;;;;143.40;134.00;;;0.80;99.90;;;;;;5101998;28;20511;-86
2020/12/06 04:26:47;;;;;;;148.93;138.40;;;0.70;99.90;;;;;;5095075;28;20437;-86
2020/12/06 04:29:26;;;;;;;149.17;138.07;;;0.70;99.90;;;;;;5094571;28;20504;-86
2020/12/06 04:31:53;;;;;;;148.17;138.07;;;0.80;99.90;;;;;;5093403;28;20455;-86
2020/12/06 04:34:23;;;;;;;145.53;136.13;;;0.80;99.90;;;;;;5107618;28;20464;-84
2020/12/06 04:36:52;;;;;;;148.20;137.27;;;0.70;99.90;;;;;;5114695;28;20480;-84
2020/12/06 04:39:23;;;;;;;142.07;132.27;;;0.70;99.90;;;;;;5112878;28;20967;-86
2020/12/06 04:42:14;;;;;;;143.30;133.53;;;0.40;99.90;;;;;;5114425;28;20472;-86
2020/12/06 04:44:56;;;;;;;137.47;127.67;;;0.50;99.90;;;;;;5099353;28;20453;-85
2020/12/06 04:47:48;;;;;;;137.43;127.70;;;0.40;99.90;;;;;;5093619;28;20461;-84
2020/12/06 04:50:37;;;;;;;;;;;;;;;;;;;;;
2020/12/06 04:53:06;;;;;;;148.30;138.40;;;0.20;99.90;;;;;;5112214;28;20457;-88
2020/12/06 04:55:35;;;;;;;156.93;145.67;;;0.50;99.90;;;;;;5113040;28;20468;-86
2020/12/06 04:58:05;;;;;;;154.40;144.00;;;0.50;99.90;;;;;;5114232;28;20465;-88
2020/12/06 05:00:48;;;;;;;156.85;145.20;;;0.40;99.90;;;;;;5105665;28;20532;-86
2020/12/06 05:03:31;;;;;;;172.70;160.63;;;0.40;99.90;;;;;;5093876;28;20206;-85
2020/12/06 05:05:59;;;;;;;177.17;164.63;;;0.60;99.90;;;;;;5106430;28;20488;-87
2020/12/06 05:08:43;;;;;;;166.77;155.30;;;0.50;99.90;;;;;;5105781;28;20449;-87
2020/12/06 05:11:21;;;;;;;162.53;151.10;;;0.60;99.90;;;;;;5093642;28;20536;-85
2020/12/06 05:14:47;;;;;;;157.30;145.87;;;0.50;99.90;;;;;;5092724;28;20549;-84
2020/12/06 05:17:36;;;;;;;161.50;150.80;;;0.70;99.90;;;;;;5085866;28;20445;-85
2020/12/06 05:20:29;;;;;;;166.73;155.17;;;0.60;99.90;;;;;;5115818;28;20456;-88
2020/12/06 05:22:56;;;;;;;159.47;147.97;;;0.90;99.90;;;;;;5093769;28;20450;-89
2020/12/06 05:25:22;;;;;;;162.93;150.03;;;0.70;99.90;;;;;;5093469;28;20543;-78
2020/12/06 05:27:49;;;;;;;174.57;162.67;;;0.70;99.90;;;;;;5111048;28;20459;-88
2020/12/06 05:33:34;;;;;;;164.67;152.70;;;0.70;99.90;;;;;;5028986;28;20448;-86
2020/12/06 05:36:00;;;;;;;162.30;150.93;;;0.80;99.90;;;;;;5092755;28;20481;-85
2020/12/06 05:38:29;;;;;;;156.70;145.40;;;0.80;99.90;;;;;;5101309;28;20449;-82
2020/12/06 05:40:58;;;;;;;162.67;151.20;;;0.90;99.90;;;;;;5112487;28;20507;-84
2020/12/06 05:43:28;;;;;;;164.68;152.13;;;0.90;99.90;;;;;;5112732;28;20457;-84
2020/12/06 05:46:09;;;;;;;160.03;149.60;;;0.70;99.90;;;;;;5095141;28;20202;-85
2020/12/06 05:48:38;;;;;;;161.77;150.77;;;0.80;99.90;;;;;;5096081;28;20449;-85
2020/12/06 05:51:21;;;;;;;165.80;154.10;;;0.80;99.90;;;;;;5110354;28;20826;-85
2020/12/06 05:53:53;;;;;;;162.20;150.60;;;0.90;99.90;;;;;;5116363;28;20478;-85
2020/12/06 05:56:31;;;;;;;161.33;150.43;;;0.90;99.90;;;;;;5103926;28;20477;-84
2020/12/06 05:59:09;;;;;;;157.27;146.27;;;0.80;99.90;;;;;;5096002;28;20811;-84
2020/12/06 06:01:42;;;;;;;163.77;152.03;;;1.00;99.90;;;;;;5108068;28;20860;-84
2020/12/06 06:04:20;;;;;;;165.13;153.37;;;1.00;99.90;;;;;;5116122;27;20449;-84
2020/12/06 06:09:58;;;;;;;156.87;145.67;;;1.10;99.90;;;;;;5095729;28;20467;-85
2020/12/06 06:12:39;;;;;;;154.80;143.67;;;1.10;99.90;;;;;;5114443;28;20445;-84
2020/12/06 06:15:06;;;;;;;156.37;145.87;;;1.10;99.90;;;;;;5115668;28;20481;-85
2020/12/06 06:17:34;;;;;;;157.43;146.17;;;1.10;99.90;;;;;;5095074;28;20450;-85
2020/12/06 06:20:04;;;;;;;164.07;152.30;;;1.20;99.90;;;;;;5111395;28;20445;-85
2020/12/06 06:22:48;;;;;;;158.93;147.90;;;1.20;99.90;;;;;;5115945;28;20449;-84
2020/12/06 06:25:17;;;;;;;162.97;151.37;;;1.30;99.90;;;;;;5114888;28;20453;-84
2020/12/06 06:27:49;;;;;;;159.17;148.17;;;1.30;99.90;;;;;;5115451;28;20472;-84
2020/12/06 06:30:17;;;;;;;163.37;151.87;;;1.30;99.90;;;;;;5099035;28;20437;-83
2020/12/06 06:32:44;;;;;;;164.93;154.10;;;1.50;99.90;;;;;;5093959;28;20507;-83
2020/12/06 06:35:12;;;;;;;164.87;153.53;;;1.40;99.90;;;;;;5097792;28;20534;-82
2020/12/06 06:37:39;;;;;;;159.63;149.10;;;1.60;99.90;;;;;;5095007;28;20944;-83
2020/12/06 06:40:07;;;;;;;166.43;154.43;;;1.50;99.90;;;;;;5095427;28;20485;-84
2020/12/06 06:42:36;;;;;;;162.50;151.50;;;1.60;99.90;;;;;;5095023;28;20503;-83
2020/12/06 06:45:05;;;;;;;156.53;145.47;;;1.60;99.90;;;;;;5102066;28;20448;-81
2020/12/06 06:47:31;;;;;;;148.23;138.43;;;1.80;99.90;;;;;;5099049;28;20491;-82
2020/12/06 06:50:08;;;;;;;150.10;140.13;;;1.70;99.90;;;;;;5108392;28;20502;-82
2020/12/06 06:52:40;;;;;;;150.10;140.00;;;1.90;99.90;;;;;;5115097;28;20931;-83
2020/12/06 06:55:17;;;;;;;144.10;134.53;;;1.70;99.90;;;;;;5094495;28;20860;-82
2020/12/06 06:57:48;;;;;;;140.80;131.50;;;1.70;99.90;;;;;;5108458;28;20440;-80
2020/12/06 07:00:14;;;;;;;144.43;134.60;;;1.60;99.90;;;;;;5114826;28;20522;-82
2020/12/06 07:02:49;;;;;;;142.90;133.40;;;1.90;99.90;;;;;;5113560;28;20498;-83
2020/12/06 07:05:21;;;;;;;138.83;129.40;;;1.80;99.90;;;;;;5115095;28;20445;-84
2020/12/06 07:07:52;;;;;;;138.07;128.87;;;1.70;99.90;;;;;;5095074;28;20486;-81
2020/12/06 07:10:23;;;;;;;135.30;126.67;;;1.90;99.90;;;;;;5103094;28;20460;-83
2020/12/06 07:12:53;;;;;;;136.30;127.57;;;1.80;99.90;;;;;;5096060;28;20457;-81
2020/12/06 07:15:24;;;;;;;131.87;122.97;;;1.90;99.90;;;;;;5098134;28;20471;-83
2020/12/06 07:17:52;;;;;;;131.30;123.07;;;2.00;99.90;;;;;;5113792;28;20458;-81
2020/12/06 07:20:21;;;;;;;124.10;115.67;;;2.10;99.90;;;;;;5111421;28;21005;-83
2020/12/06 07:22:52;;;;;;;121.60;113.70;;;1.90;99.90;;;;;;5094327;28;20491;-83
2020/12/06 07:25:19;;;;;;;120.23;112.27;;;2.00;99.90;;;;;;5096738;28;20457;-84
2020/12/06 07:27:47;;;;;;;119.00;110.90;;;2.00;99.90;;;;;;5114606;28;20494;-84
2020/12/06 07:30:23;;;;;;;119.20;111.70;;;1.90;99.90;;;;;;5112856;28;20544;-82
2020/12/06 07:32:53;;;;;;;116.87;108.70;;;2.00;99.90;;;;;;5092852;28;20933;-81
2020/12/06 07:35:23;;;;;;;116.83;109.00;;;1.90;99.90;;;;;;5108932;28;21027;-82
2020/12/06 07:37:56;;;;;;;117.97;110.07;;;2.00;99.90;;;;;;5114084;28;20449;-83
2020/12/06 07:40:22;;;;;;;122.87;114.43;;;2.00;99.90;;;;;;5098406;28;20894;-83
2020/12/06 07:42:49;;;;;;;114.77;106.97;;;2.00;99.90;;;;;;5093600;28;20450;-83
2020/12/06 07:45:17;;;;;;;116.03;108.23;;;2.00;99.90;;;;;;5107323;28;20459;-84
2020/12/06 07:47:43;;;;;;;117.23;108.93;;;2.00;99.90;;;;;;5113270;28;20532;-83
2020/12/06 07:50:10;;;;;;;116.90;108.70;;;2.10;99.90;;;;;;5101251;28;20454;-82
2020/12/06 07:52:37;;;;;;;121.43;112.63;;;2.10;99.90;;;;;;5093418;28;20496;-83
2020/12/06 07:55:06;;;;;;;120.00;111.10;;;2.10;99.90;;;;;;5104425;28;20494;-84
2020/12/06 07:57:49;;;;;;;115.53;107.10;;;2.20;99.90;;;;;;5113917;28;20522;-83
2020/12/06 08:00:18;;;;;;;118.43;109.83;;;2.10;99.90;;;;;;5096795;28;20548;-82
2020/12/06 08:02:48;;;;;;;114.17;106.10;;;2.30;99.90;;;;;;5092543;28;20473;-83
2020/12/06 08:05:19;;;;;;;112.47;104.40;;;2.10;99.90;;;;;;5093244;28;20883;-83
2020/12/06 08:07:47;;;;;;;105.13;97.80;;;2.20;99.90;;;;;;5093406;28;20450;-81
2020/12/06 08:10:17;;;;;;;98.87;91.30;;;2.10;99.90;;;;;;5100008;28;20495;-81
2020/12/06 08:12:45;;;;;;;100.80;94.17;;;2.20;99.90;;;;;;5093351;28;20877;-82
2020/12/06 08:15:12;;;;;;;101.47;94.23;;;2.20;99.90;;;;;;5107615;28;20441;-81
2020/12/06 08:17:51;;;;;;;104.00;96.40;;;2.20;99.90;;;;;;5112450;28;20509;-81
2020/12/06 08:20:18;;;;;;;96.80;89.30;;;2.20;99.90;;;;;;5113350;28;20456;-80
2020/12/06 08:22:50;;;;;;;94.67;87.67;;;2.20;99.90;;;;;;5113495;28;20453;-82
2020/12/06 08:25:19;;;;;;;103.97;96.80;;;2.20;99.90;;;;;;5097595;28;20453;-81
2020/12/06 08:27:46;;;;;;;106.30;98.60;;;2.20;99.90;;;;;;5092899;28;20445;-82
2020/12/06 08:30:14;;;;;;;101.83;95.20;;;2.30;99.90;;;;;;5093065;28;20549;-81
2020/12/06 08:32:40;;;;;;;105.40;97.93;;;2.50;99.90;;;;;;5101665;28;20516;-81
2020/12/06 08:35:07;;;;;;;111.10;103.23;;;2.50;99.90;;;;;;5113105;28;20994;-82
2020/12/06 08:37:35;;;;;;;107.27;99.57;;;2.50;99.90;;;;;;5104450;28;20950;-82
2020/12/06 08:40:04;;;;;;;104.13;96.87;;;2.60;99.90;;;;;;5092998;28;20457;-82
2020/12/06 08:42:33;;;;;;;105.57;98.23;;;2.80;99.90;;;;;;5100024;28;20881;-82
2020/12/06 08:45:04;;;;;;;104.17;96.90;;;2.70;99.90;;;;;;5099674;28;20465;-82
2020/12/06 08:47:42;;;;;;;111.07;103.37;;;2.60;99.90;;;;;;5112277;28;20494;-81
2020/12/06 08:50:11;;;;;;;108.53;100.43;;;2.80;99.90;;;;;;5112647;28;20506;-81
2020/12/06 08:52:40;;;;;;;95.87;88.80;;;2.90;99.90;;;;;;5110962;28;20452;-81
2020/12/06 08:55:26;;;;;;;95.90;89.10;;;2.90;99.90;;;;;;5108448;28;20838;-82
2020/12/06 08:57:55;;;;;;;85.77;79.47;;;3.00;99.90;;;;;;5091468;28;20450;-81
2020/12/06 09:00:22;;;;;;;86.30;79.70;;;3.20;99.90;;;;;;5091158;28;20457;-82
2020/12/06 09:02:51;;;;;;;88.57;81.50;;;3.10;99.90;;;;;;5094998;28;20579;-81
2020/12/06 09:05:17;;;;;;;82.07;76.10;;;3.20;99.90;;;;;;5111097;28;20478;-81
2020/12/06 09:07:46;;;;;;;82.47;75.90;;;3.40;99.90;;;;;;5111741;28;20839;-82
2020/12/06 09:10:14;;;;;;;78.13;72.03;;;3.50;99.90;;;;;;5105940;28;20454;-82
2020/12/06 09:12:41;;;;;;;80.90;74.70;;;3.50;99.90;;;;;;5091973;28;20454;-82
2020/12/06 09:15:08;;;;;;;73.40;67.87;;;3.70;99.90;;;;;;5107066;28;20959;-82
2020/12/06 09:17:38;;;;;;;67.70;62.30;;;3.60;99.90;;;;;;5115020;28;20481;-81
2020/12/06 09:20:05;;;;;;;70.00;64.07;;;3.70;99.90;;;;;;5102509;28;20481;-82
2020/12/06 09:22:31;;;;;;;66.33;61.00;;;3.70;99.90;;;;;;5096616;28;20445;-82
2020/12/06 09:24:58;;;;;;;62.23;56.33;;;3.80;99.90;;;;;;5108826;28;20513;-82
2020/12/06 09:27:27;;;;;;;57.57;51.97;;;3.80;99.90;;;;;;5116817;28;20510;-82
2020/12/06 09:29:57;;;;;;;58.40;53.07;;;3.60;99.90;;;;;;5116399;28;20499;-81
2020/12/06 09:32:27;;;;;;;51.50;46.80;;;3.50;99.90;;;;;;5115369;28;20440;-82
2020/12/06 09:34:56;;;;;;;53.80;48.47;;;3.60;99.90;;;;;;5105358;28;20485;-81
2020/12/06 09:37:24;;;;;;;56.03;51.07;;;3.70;99.90;;;;;;5096096;28;20492;-81
2020/12/06 09:39:56;;;;;;;61.67;56.10;;;3.60;99.90;;;;;;5108463;28;20448;-82
2020/12/06 09:42:28;;;;;;;61.83;56.40;;;3.80;99.90;;;;;;5108995;28;20456;-81
2020/12/06 09:44:56;;;;;;;59.93;54.50;;;3.70;99.90;;;;;;5096003;28;20449;-82
2020/12/06 09:47:23;;;;;;;56.30;51.30;;;3.90;99.90;;;;;;5101065;28;20460;-82
2020/12/06 09:49:50;;;;;;;52.53;47.80;;;3.90;99.90;;;;;;5116908;28;20797;-82
2020/12/06 09:52:16;;;;;;;53.20;48.20;;;3.90;99.90;;;;;;5110822;28;20450;-82
2020/12/06 09:54:43;;;;;;;51.73;46.20;;;3.70;99.90;;;;;;5095637;28;20989;-82
2020/12/06 09:57:09;;;;;;;53.10;47.90;;;3.80;99.90;;;;;;5098870;28;20486;-81
2020/12/06 09:59:35;;;;;;;44.03;40.00;;;3.80;99.90;;;;;;5116397;28;20453;-83
2020/12/06 10:02:02;;;;;;;45.13;40.53;;;3.90;99.90;;;;;;5112814;28;20460;-83
2020/12/06 10:04:28;;;;;;;39.47;35.67;;;4.00;99.90;;;;;;5095719;28;20460;-83
2020/12/06 10:06:55;;;;;;;39.00;34.97;;;4.20;99.90;;;;;;5095649;28;20540;-83
2020/12/06 10:09:21;;;;;;;36.33;32.53;;;4.20;99.90;;;;;;5104042;28;20481;-82
2020/12/06 10:11:48;;;;;;;40.90;27.27;;;4.30;99.90;;;;;;5095536;28;20450;-82
2020/12/06 10:14:14;;;;;;;34.03;29.60;;;4.30;99.90;;;;;;5114698;28;20479;-83
2020/12/06 10:16:40;;;;;;;36.33;28.43;;;4.30;99.90;;;;;;5114539;28;20473;-82
2020/12/06 10:19:07;;;;;;;41.63;34.27;;;4.50;99.90;;;;;;5097803;28;20452;-83
2020/12/06 10:21:33;;;;;;;32.10;28.50;;;4.50;99.90;;;;;;5095438;28;20465;-83
2020/12/06 10:24:00;;;;;;;34.60;28.80;;;4.50;99.90;;;;;;5111188;28;20456;-83
2020/12/06 10:26:26;;;;;;;30.93;23.63;;;4.70;99.90;;;;;;5115723;28;20820;-83
2020/12/06 10:28:52;;;;;;;31.70;26.73;;;4.70;99.90;;;;;;5100245;28;20453;-83
2020/12/06 10:31:19;;;;;;;36.83;27.17;;;4.60;99.90;;;;;;5094000;28;20457;-83
2020/12/06 10:33:45;;;;;;;28.63;22.90;;;4.70;99.90;;;;;;5107910;28;20452;-83
2020/12/06 10:36:11;;;;;;;36.70;25.63;;;4.80;99.90;;;;;;5114836;28;20491;-83
2020/12/06 10:38:38;;;;;;;34.30;27.20;;;4.80;99.90;;;;;;5095108;28;20552;-84
2020/12/06 10:41:05;;;;;;;30.53;23.90;;;4.80;99.90;;;;;;5095011;28;20454;-85
2020/12/06 10:43:31;;;;;;;35.37;26.87;;;4.80;99.90;;;;;;5095000;28;20456;-84
2020/12/06 10:45:58;;;;;;;28.20;22.00;;;4.80;99.90;;;;;;5093734;28;20446;-84
2020/12/06 10:48:24;;;;;;;33.20;23.43;;;4.90;99.90;;;;;;5112387;28;20812;-84
2020/12/06 10:50:51;;;;;;;29.87;22.17;;;5.00;99.90;;;;;;5115210;28;20449;-85
2020/12/06 10:53:17;;;;;;;30.80;22.83;;;4.90;99.90;;;;;;5098579;28;20454;-86
2020/12/06 10:55:44;;;;;;;32.20;21.07;;;5.00;99.90;;;;;;5094682;28;20519;-87
2020/12/06 10:58:11;;;;;;;32.77;21.30;;;5.00;99.90;;;;;;5109274;28;20452;-84
2020/12/06 11:00:37;;;;;;;30.37;24.27;;;5.10;99.90;;;;;;5115132;28;20469;-84
2020/12/06 11:03:04;;;;;;;31.80;20.30;;;4.90;99.90;;;;;;5100249;28;20520;-84
2020/12/06 11:05:30;;;;;;;36.73;26.97;;;5.00;99.90;;;;;;5104125;28;20517;-84
2020/12/06 11:07:56;;;;;;;41.47;26.63;;;5.00;99.90;;;;;;5115219;28;20527;-84
2020/12/06 11:10:23;;;;;;;41.30;31.13;;;5.10;99.90;;;;;;5108297;28;20545;-83
2020/12/06 11:12:49;;;;;;;41.93;29.20;;;4.90;99.90;;;;;;5101406;28;20449;-84
2020/12/06 11:15:16;;;;;;;42.70;32.60;;;5.10;99.90;;;;;;5102244;28;20446;-85
2020/12/06 11:17:43;;;;;;;38.60;28.47;;;5.00;99.90;;;;;;5096947;28;20480;-86
2020/12/06 11:20:11;;;;;;;42.43;31.50;;;5.00;99.90;;;;;;5096313;28;20452;-85
2020/12/06 11:22:37;;;;;;;39.78;31.10;;;5.00;99.90;;;;;;5094704;28;20506;-85
2020/12/06 11:25:03;;;;;;;38.23;31.00;;;5.00;99.90;;;;;;5094436;28;20227;-86
2020/12/06 11:27:30;;;;;;;47.00;32.93;;;4.90;99.90;;;;;;5093930;28;20541;-86
2020/12/06 11:29:56;;;;;;;42.90;35.00;;;5.00;99.90;;;;;;5098275;28;20572;-87
2020/12/06 11:32:24;;;;;;;44.00;36.50;;;5.20;99.90;;;;;;5101490;28;20449;-86
2020/12/06 11:34:51;;;;;;;46.00;35.50;;;5.00;99.90;;;;;;5097988;28;20524;-85
2020/12/06 11:37:17;;;;;;;45.90;40.17;;;5.10;99.90;;;;;;5097471;28;20491;-85
2020/12/06 11:39:43;;;;;;;48.00;43.00;;;5.00;99.90;;;;;;5113399;28;20449;-86
2020/12/06 11:42:10;;;;;;;51.50;43.93;;;5.00;99.90;;;;;;5094614;28;20933;-85
2020/12/06 11:44:36;;;;;;;55.57;49.90;;;5.10;99.90;;;;;;5093776;28;20478;-84
2020/12/06 11:47:02;;;;;;;57.50;46.83;;;5.10;99.90;;;;;;5110219;28;20547;-82
2020/12/06 11:49:29;;;;;;;56.27;50.17;;;4.90;99.90;;;;;;5101486;28;20492;-84
2020/12/06 11:51:56;;;;;;;56.73;46.87;;;4.90;99.90;;;;;;5093365;28;20453;-84
2020/12/06 11:54:22;;;;;;;63.60;54.13;;;4.80;99.90;;;;;;5104040;28;20509;-85
2020/12/06 11:56:49;;;;;;;46.77;42.00;;;4.80;99.90;;;;;;5113719;28;20566;-84
2020/12/06 11:59:16;;;;;;;58.53;46.40;;;4.80;99.90;;;;;;5106388;28;20545;-84
2020/12/06 12:01:43;;;;;;;55.73;49.83;;;4.70;99.90;;;;;;5092223;28;20476;-84
2020/12/06 12:04:10;;;;;;;63.70;56.47;;;4.70;99.90;;;;;;5102632;28;20459;-84
2020/12/06 12:06:38;;;;;;;70.63;57.93;;;4.70;99.90;;;;;;5113468;28;20455;-84
2020/12/06 12:09:05;;;;;;;64.30;57.43;;;4.70;99.90;;;;;;5100148;28;20456;-85
2020/12/06 12:11:31;;;;;;;67.53;61.17;;;4.80;99.90;;;;;;5093557;28;20499;-85
2020/12/06 12:13:57;;;;;;;73.97;66.87;;;4.60;99.90;;;;;;5105002;28;20533;-87
2020/12/06 12:16:24;;;;;;;74.30;66.60;;;4.60;99.90;;;;;;5102288;28;20506;-85
2020/12/06 12:18:50;;;;;;;76.63;68.30;;;4.70;99.90;;;;;;5112235;28;20451;-86
2020/12/06 12:21:16;;;;;;;84.00;75.90;;;4.60;99.90;;;;;;5098097;28;20537;-85
2020/12/06 12:23:44;;;;;;;88.67;79.37;;;4.70;99.90;;;;;;5109906;28;20448;-87
2020/12/06 12:26:10;;;;;;;88.23;80.07;;;4.60;99.90;;;;;;5099354;28;20544;-87
2020/12/06 12:28:36;;;;;;;94.70;86.30;;;4.50;99.90;;;;;;5091966;28;20442;-86
2020/12/06 12:31:02;;;;;;;93.90;84.67;;;4.80;99.90;;;;;;5101326;28;20444;-88
2020/12/06 12:33:29;;;;;;;100.17;91.17;;;4.70;99.90;;;;;;5107824;28;20461;-88
2020/12/06 12:35:55;;;;;;;108.33;98.83;;;4.60;99.90;;;;;;5095820;28;20518;-85
2020/12/06 12:38:21;;;;;;;103.27;93.77;;;4.60;99.90;;;;;;5107423;28;20441;-88
2020/12/06 12:40:49;;;;;;;107.00;97.83;;;4.60;99.90;;;;;;5103001;28;20453;-86
2020/12/06 12:43:16;;;;;;;111.10;101.13;;;4.80;99.90;;;;;;5107886;28;20463;-88
2020/12/06 12:45:42;;;;;;;102.10;93.60;;;4.70;99.90;;;;;;5111699;28;20445;-88
2020/12/06 12:48:08;;;;;;;115.03;105.10;;;4.50;99.90;;;;;;5111318;28;20452;-87
2020/12/06 12:50:34;;;;;;;119.10;108.30;;;4.80;99.90;;;;;;5104708;28;20954;-88
2020/12/06 12:53:01;;;;;;;117.47;106.70;;;4.80;99.90;;;;;;5096066;28;20537;-88
2020/12/06 12:55:27;;;;;;;117.57;107.40;;;4.80;99.90;;;;;;5102540;28;20815;-87
2020/12/06 12:57:54;;;;;;;118.40;107.80;;;4.70;99.90;;;;;;5116522;28;20488;-87